createdAt,value
2018-02-06T00:00:18.344Z,0
2018-02-06T00:01:14.051Z,0
2018-02-06T00:02:06.778Z,0
2018-02-06T00:02:58.535Z,0
2018-02-06T00:03:52.182Z,0
2018-02-06T00:04:45.404Z,0
2018-02-06T00:05:37.895Z,0
2018-02-06T00:06:34.687Z,0
2018-02-06T00:07:28.634Z,0
2018-02-06T00:08:21.441Z,0
2018-02-06T00:09:15.057Z,0
2018-02-06T00:10:10.294Z,0
2018-02-06T00:11:02.804Z,0
2018-02-06T00:11:54.792Z,0
2018-02-06T00:12:47.397Z,0
2018-02-06T00:15:15.181Z,0
2018-02-06T00:15:55.531Z,0
2018-02-06T00:16:35.931Z,0
2018-02-06T00:17:16.341Z,0
2018-02-06T00:17:56.751Z,0
2018-02-06T00:18:37.151Z,0
2018-02-06T00:19:17.538Z,0
2018-02-06T00:19:57.978Z,0
2018-02-06T00:20:38.343Z,0
2018-02-06T00:21:18.784Z,0
2018-02-06T00:23:52.167Z,0
2018-02-06T00:24:32.623Z,0
2018-02-06T00:25:13.037Z,0
2018-02-06T00:25:54.257Z,0
2018-02-06T00:26:34.568Z,0
2018-02-06T00:27:14.977Z,0
2018-02-06T00:27:55.387Z,0
2018-02-06T00:28:35.876Z,0
2018-02-06T00:31:17.293Z,0
2018-02-06T00:31:56.409Z,0
2018-02-06T00:32:36.796Z,0
2018-02-06T00:33:17.264Z,0
2018-02-06T00:33:57.687Z,0
2018-02-06T00:34:38.036Z,0
2018-02-06T00:35:18.451Z,0
2018-02-06T00:35:58.829Z,0
2018-02-06T00:36:39.248Z,0
2018-02-06T00:37:19.639Z,0
2018-02-06T00:38:00.120Z,0
2018-02-06T00:38:40.497Z,0
2018-02-06T00:39:20.901Z,0
2018-02-06T00:40:01.320Z,0
2018-02-06T00:40:41.716Z,0
2018-02-06T00:41:22.084Z,0
2018-02-06T00:42:02.455Z,0
2018-02-06T00:42:42.931Z,0
2018-02-06T00:43:23.218Z,0
2018-02-06T00:44:03.608Z,0
2018-02-06T00:44:44.007Z,0
2018-02-06T00:45:24.428Z,0
2018-02-06T00:46:04.888Z,0
2018-02-06T00:46:45.202Z,0
2018-02-06T00:47:25.568Z,0
2018-02-06T00:49:26.066Z,0
2018-02-06T00:50:06.532Z,0
2018-02-06T00:50:46.941Z,0
2018-02-06T00:51:27.318Z,0
2018-02-06T00:52:07.683Z,0
2018-02-06T00:52:48.072Z,0
2018-02-06T00:53:28.467Z,0
2018-02-06T00:54:08.869Z,0
2018-02-06T00:54:49.280Z,0
2018-02-06T00:55:29.664Z,0
2018-02-06T00:56:10.042Z,0
2018-02-06T00:56:50.436Z,0
2018-02-06T00:57:30.856Z,0
2018-02-06T00:58:11.242Z,0
2018-02-06T00:58:51.639Z,0
2018-02-06T00:59:32.007Z,0
2018-02-06T01:00:12.398Z,0
2018-02-06T01:00:52.792Z,0
2018-02-06T01:01:33.211Z,0
2018-02-06T01:02:13.601Z,0
2018-02-06T01:02:54.093Z,0
2018-02-06T01:03:34.421Z,0
2018-02-06T01:04:14.835Z,0
2018-02-06T01:04:55.213Z,0
2018-02-06T01:05:35.621Z,0
2018-02-06T01:06:16.022Z,0
2018-02-06T01:06:56.428Z,0
2018-02-06T01:07:36.825Z,0
2018-02-06T01:08:17.210Z,0
2018-02-06T01:08:57.594Z,0
2018-02-06T01:10:59.219Z,0
2018-02-06T01:11:39.459Z,0
2018-02-06T01:12:19.845Z,0
2018-02-06T01:13:00.240Z,0
2018-02-06T01:13:40.651Z,0
2018-02-06T01:14:21.068Z,0
2018-02-06T01:15:01.436Z,0
2018-02-06T01:15:41.910Z,0
2018-02-06T01:16:22.249Z,0
2018-02-06T01:17:02.666Z,0
2018-02-06T01:17:43.069Z,0
2018-02-06T01:18:23.470Z,0
2018-02-06T01:19:03.863Z,0
2018-02-06T01:19:44.244Z,0
2018-02-06T01:20:24.652Z,0
2018-02-06T01:21:04.975Z,0
2018-02-06T01:21:45.381Z,0
2018-02-06T01:22:25.840Z,0
2018-02-06T01:23:06.186Z,0
2018-02-06T01:23:46.533Z,0
2018-02-06T01:24:26.913Z,0
2018-02-06T01:25:07.325Z,0
2018-02-06T01:25:47.716Z,0
2018-02-06T01:26:28.129Z,0
2018-02-06T01:27:08.563Z,0
2018-02-06T01:27:49.010Z,0
2018-02-06T01:30:07.817Z,0
2018-02-06T01:30:48.175Z,0
2018-02-06T01:31:28.602Z,0
2018-02-06T01:32:08.977Z,0
2018-02-06T01:32:49.433Z,0
2018-02-06T01:33:29.822Z,0
2018-02-06T01:34:10.183Z,0
2018-02-06T01:34:50.575Z,0
2018-02-06T01:35:30.998Z,0
2018-02-06T01:36:11.375Z,0
2018-02-06T01:36:51.811Z,0
2018-02-06T01:37:32.198Z,0
2018-02-06T01:38:12.581Z,0
2018-02-06T01:38:52.946Z,0
2018-02-06T01:39:33.342Z,0
2018-02-06T01:42:43.871Z,0
2018-02-06T01:43:22.816Z,0
2018-02-06T01:44:03.197Z,0
2018-02-06T01:44:43.627Z,0
2018-02-06T01:45:23.970Z,0
2018-02-06T01:46:04.429Z,0
2018-02-06T01:46:44.752Z,0
2018-02-06T01:47:25.156Z,0
2018-02-06T01:48:05.639Z,0
2018-02-06T01:48:45.971Z,0
2018-02-06T01:53:03.069Z,0
2018-02-06T01:53:41.913Z,0
2018-02-06T01:54:22.213Z,0
2018-02-06T01:55:02.668Z,0
2018-02-06T01:55:43.021Z,0
2018-02-06T01:56:23.384Z,0
2018-02-06T01:57:03.810Z,0
2018-02-06T01:57:44.228Z,0
2018-02-06T01:58:24.640Z,0
2018-02-06T01:59:05.058Z,0
2018-02-06T01:59:45.484Z,0
2018-02-06T02:00:25.854Z,0
2018-02-06T02:01:06.266Z,0
2018-02-06T02:01:46.654Z,0
2018-02-06T02:02:27.070Z,0
2018-02-06T02:03:07.462Z,0
2018-02-06T02:03:47.884Z,0
2018-02-06T02:04:28.276Z,0
2018-02-06T02:05:08.708Z,0
2018-02-06T02:05:49.096Z,0
2018-02-06T02:06:29.478Z,0
2018-02-06T02:07:09.892Z,0
2018-02-06T02:07:50.296Z,0
2018-02-06T02:08:30.671Z,0
2018-02-06T02:09:11.056Z,0
2018-02-06T02:09:51.440Z,0
2018-02-06T02:10:31.851Z,0
2018-02-06T02:11:12.288Z,0
2018-02-06T02:11:52.678Z,0
2018-02-06T02:12:33.066Z,0
2018-02-06T02:13:13.558Z,0
2018-02-06T02:13:53.849Z,0
2018-02-06T02:14:34.240Z,0
2018-02-06T02:15:14.656Z,0
2018-02-06T02:15:55.130Z,0
2018-02-06T02:16:35.460Z,0
2018-02-06T02:17:15.838Z,0
2018-02-06T02:17:56.296Z,0
2018-02-06T02:18:36.680Z,0
2018-02-06T02:19:17.086Z,0
2018-02-06T02:19:57.447Z,0
2018-02-06T02:20:37.824Z,0
2018-02-06T02:21:18.227Z,0
2018-02-06T02:21:58.585Z,0
2018-02-06T02:22:38.992Z,0
2018-02-06T02:23:19.416Z,0
2018-02-06T02:23:59.779Z,0
2018-02-06T02:24:40.172Z,0
2018-02-06T02:25:20.585Z,0
2018-02-06T02:26:00.979Z,0
2018-02-06T02:26:41.377Z,0
2018-02-06T02:27:21.737Z,0
2018-02-06T02:28:02.206Z,0
2018-02-06T02:28:42.519Z,0
2018-02-06T02:29:22.934Z,0
2018-02-06T02:30:03.312Z,0
2018-02-06T02:30:43.721Z,0
2018-02-06T02:31:24.158Z,0
2018-02-06T02:32:04.557Z,0
2018-02-06T02:32:45.013Z,0
2018-02-06T02:33:25.352Z,0
2018-02-06T02:34:05.743Z,0
2018-02-06T02:34:46.143Z,0
2018-02-06T02:35:26.536Z,0
2018-02-06T02:36:06.974Z,0
2018-02-06T02:36:47.367Z,0
2018-02-06T02:37:27.797Z,0
2018-02-06T02:38:08.185Z,0
2018-02-06T02:38:48.591Z,0
2018-02-06T02:39:28.968Z,0
2018-02-06T02:40:09.321Z,0
2018-02-06T02:40:49.758Z,0
2018-02-06T02:41:30.126Z,0
2018-02-06T04:42:19.576Z,0
2018-02-06T04:42:59.926Z,0
2018-02-06T04:43:40.347Z,0
2018-02-06T04:44:20.767Z,0
2018-02-06T04:45:01.099Z,0
2018-02-06T04:47:18.850Z,0
2018-02-06T04:47:59.162Z,0
2018-02-06T04:48:39.543Z,0
2018-02-06T04:49:19.929Z,0
2018-02-06T04:50:00.361Z,0
2018-02-06T04:50:40.779Z,0
2018-02-06T04:51:21.136Z,0
2018-02-06T04:52:01.602Z,0
2018-02-06T04:52:41.924Z,0
2018-02-06T04:53:22.304Z,0
2018-02-06T04:54:02.766Z,0
2018-02-06T04:54:43.101Z,0
2018-02-06T04:55:23.533Z,0
2018-02-06T04:56:03.948Z,0
2018-02-06T04:56:44.341Z,0
2018-02-06T04:57:24.753Z,0
2018-02-06T04:58:05.185Z,0
2018-02-06T04:58:45.542Z,0
2018-02-06T04:59:25.935Z,0
2018-02-06T05:00:06.318Z,0
2018-02-06T05:00:46.685Z,0
2018-02-06T05:01:27.062Z,0
2018-02-06T05:02:07.470Z,0
2018-02-06T05:02:47.848Z,0
2018-02-06T05:03:28.279Z,0
2018-02-06T05:04:08.691Z,0
2018-02-06T05:04:49.112Z,0
2018-02-06T05:05:29.496Z,0
2018-02-06T05:06:09.881Z,0
2018-02-06T05:06:50.236Z,0
2018-02-06T05:07:30.630Z,0
2018-02-06T05:08:11.027Z,0
2018-02-06T05:08:51.426Z,0
2018-02-06T05:09:31.825Z,0
2018-02-06T05:10:12.262Z,0
2018-02-06T05:12:30.125Z,0
2018-02-06T05:13:10.530Z,0
2018-02-06T05:13:51.007Z,0
2018-02-06T05:14:31.316Z,0
2018-02-06T05:15:11.707Z,0
2018-02-06T05:15:52.075Z,0
2018-02-06T05:16:32.446Z,0
2018-02-06T05:17:12.830Z,0
2018-02-06T05:19:30.484Z,0
2018-02-06T05:20:10.760Z,0
2018-02-06T05:20:51.176Z,0
2018-02-06T05:21:31.529Z,0
2018-02-06T05:22:11.902Z,0
2018-02-06T05:22:52.303Z,0
2018-02-06T05:23:32.721Z,0
2018-02-06T05:24:13.118Z,0
2018-02-06T05:24:53.482Z,0
2018-02-06T05:25:33.887Z,0
2018-02-06T05:26:14.273Z,0
2018-02-06T05:26:54.681Z,0
2018-02-06T05:27:35.068Z,0
2018-02-06T05:28:15.508Z,0
2018-02-06T05:28:55.832Z,0
2018-02-06T05:29:36.210Z,0
2018-02-06T05:30:16.616Z,0
2018-02-06T05:30:57.018Z,0
2018-02-06T05:31:37.417Z,0
2018-02-06T05:32:17.894Z,0
2018-02-06T05:32:58.216Z,0
2018-02-06T05:33:38.667Z,0
2018-02-06T05:34:19.075Z,0
2018-02-06T05:36:32.214Z,0
2018-02-06T05:37:12.661Z,0
2018-02-06T05:37:53.051Z,0
2018-02-06T05:38:33.467Z,0
2018-02-06T05:40:47.895Z,0
2018-02-06T05:41:28.359Z,0
2018-02-06T05:42:08.702Z,0
2018-02-06T05:42:49.115Z,0
2018-02-06T05:43:29.529Z,0
2018-02-06T05:44:09.944Z,0
2018-02-06T05:44:50.307Z,0
2018-02-06T05:45:30.727Z,0
2018-02-06T05:46:11.132Z,0
2018-02-06T05:46:51.606Z,0
2018-02-06T05:47:32.112Z,0
2018-02-06T05:48:12.500Z,0
2018-02-06T05:48:52.963Z,0
2018-02-06T05:49:33.472Z,0
2018-02-06T05:50:13.804Z,0
2018-02-06T05:50:54.203Z,0
2018-02-06T05:51:34.746Z,0
2018-02-06T05:54:02.470Z,0
2018-02-06T05:54:42.764Z,0
2018-02-06T05:57:10.895Z,0
2018-02-06T05:57:50.952Z,0
2018-02-06T05:58:31.347Z,0
2018-02-06T05:59:11.800Z,0
2018-02-06T05:59:52.210Z,0
2018-02-06T06:00:32.591Z,0
2018-02-06T06:01:13.000Z,0
2018-02-06T06:01:53.410Z,0
2018-02-06T06:02:33.831Z,0
2018-02-06T06:03:14.168Z,0
2018-02-06T06:05:14.186Z,0
2018-02-06T06:05:54.436Z,0
2018-02-06T06:06:34.818Z,0
2018-02-06T06:07:15.232Z,0
2018-02-06T06:07:55.685Z,0
2018-02-06T06:08:36.099Z,0
2018-02-06T06:09:16.490Z,0
2018-02-06T06:09:56.877Z,0
2018-02-06T06:10:37.327Z,0
2018-02-06T06:11:17.650Z,0
2018-02-06T06:11:58.065Z,0
2018-02-06T06:12:38.465Z,0
2018-02-06T06:13:18.922Z,0
2018-02-06T06:13:59.700Z,0
2018-02-06T06:14:40.286Z,0
2018-02-06T06:15:20.686Z,0
2018-02-06T06:17:39.616Z,0
2018-02-06T06:18:20.236Z,0
2018-02-06T06:19:00.628Z,0
2018-02-06T06:19:41.049Z,0
2018-02-06T06:22:18.823Z,0
2018-02-06T06:22:56.195Z,0
2018-02-06T06:23:36.614Z,0
2018-02-06T06:24:16.954Z,0
2018-02-06T06:24:57.363Z,0
2018-02-06T06:25:37.776Z,0
2018-02-06T06:28:13.824Z,0
2018-02-06T06:28:54.135Z,0
2018-02-06T06:29:34.541Z,0
2018-02-06T06:30:14.943Z,0
2018-02-06T06:30:55.349Z,0
2018-02-06T06:31:35.783Z,0
2018-02-06T06:32:16.205Z,0
2018-02-06T06:32:56.597Z,0
2018-02-06T06:33:37.042Z,0
2018-02-06T06:34:17.376Z,0
2018-02-06T06:36:30.508Z,4
2018-02-06T06:37:13.203Z,4
2018-02-06T06:39:41.261Z,0
2018-02-06T06:40:21.671Z,4
2018-02-06T06:41:02.050Z,4
2018-02-06T06:41:42.442Z,4
2018-02-06T06:42:22.825Z,0
2018-02-06T06:43:03.202Z,4
2018-02-06T06:43:43.612Z,4
2018-02-06T06:44:25.577Z,4
2018-02-06T06:45:06.004Z,4
2018-02-06T06:45:46.408Z,4
2018-02-06T06:46:26.879Z,8
2018-02-06T06:47:07.250Z,4
2018-02-06T06:47:47.663Z,8
2018-02-06T06:48:28.099Z,8
2018-02-06T06:49:08.476Z,8
2018-02-06T06:49:48.970Z,8
2018-02-06T06:50:29.321Z,8
2018-02-06T06:51:09.747Z,12
2018-02-06T06:51:50.437Z,12
2018-02-06T06:52:30.908Z,16
2018-02-06T06:53:11.300Z,12
2018-02-06T06:53:51.689Z,12
2018-02-06T06:54:32.125Z,16
2018-02-06T06:55:12.629Z,16
2018-02-06T06:55:53.035Z,16
2018-02-06T06:56:33.412Z,20
2018-02-06T06:57:13.924Z,24
2018-02-06T06:57:54.518Z,24
2018-02-06T06:58:34.906Z,28
2018-02-06T06:59:15.295Z,28
2018-02-06T06:59:55.734Z,28
2018-02-06T07:00:36.186Z,32
2018-02-06T07:01:16.847Z,32
2018-02-06T07:01:57.260Z,36
2018-02-06T07:05:57.406Z,48
2018-02-06T07:06:38.073Z,52
2018-02-06T07:07:18.465Z,52
2018-02-06T07:11:53.838Z,72
2018-02-06T07:12:34.255Z,76
2018-02-06T07:14:33.137Z,80
2018-02-06T07:15:13.706Z,88
2018-02-06T07:18:46.010Z,104
2018-02-06T07:19:27.560Z,108
2018-02-06T07:20:07.948Z,108
2018-02-06T07:20:48.455Z,108
2018-02-06T07:21:28.878Z,116
2018-02-06T07:24:03.547Z,120
2018-02-06T07:24:42.697Z,120
2018-02-06T07:25:23.114Z,120
2018-02-06T07:26:03.541Z,120
2018-02-06T07:26:43.893Z,124
2018-02-06T07:27:24.326Z,120
2018-02-06T07:28:04.792Z,120
2018-02-06T07:28:45.206Z,116
2018-02-06T07:29:25.604Z,120
2018-02-06T07:30:05.982Z,120
2018-02-06T07:30:46.373Z,120
2018-02-06T07:31:26.813Z,116
2018-02-06T07:32:07.186Z,120
2018-02-06T07:32:47.533Z,120
2018-02-06T07:33:28.030Z,124
2018-02-06T07:34:08.514Z,124
2018-02-06T07:36:33.345Z,140
2018-02-06T07:37:27.210Z,144
2018-02-06T07:38:36.614Z,152
2018-02-06T07:40:58.659Z,156
2018-02-06T07:41:39.058Z,160
2018-02-06T07:42:19.747Z,160
2018-02-06T07:43:00.140Z,164
2018-02-06T07:43:40.557Z,168
2018-02-06T07:44:21.905Z,168
2018-02-06T07:45:02.475Z,168
2018-02-06T07:45:42.912Z,172
2018-02-06T07:48:00.837Z,172
2018-02-06T07:48:39.432Z,168
2018-02-06T07:49:19.793Z,164
2018-02-06T07:50:00.251Z,164
2018-02-06T07:50:40.630Z,160
2018-02-06T07:51:21.005Z,160
2018-02-06T07:53:21.290Z,160
2018-02-06T07:54:01.685Z,160
2018-02-06T07:54:42.093Z,160
2018-02-06T07:55:22.589Z,160
2018-02-06T07:56:03.014Z,160
2018-02-06T07:56:43.396Z,164
2018-02-06T07:57:23.785Z,164
2018-02-06T07:58:04.254Z,164
2018-02-06T08:00:02.899Z,172
2018-02-06T08:00:42.815Z,172
2018-02-06T08:01:23.258Z,176
2018-02-06T08:03:56.157Z,204
2018-02-06T08:04:36.500Z,212
2018-02-06T08:05:16.897Z,216
2018-02-06T08:05:57.266Z,224
2018-02-06T08:06:37.944Z,228
2018-02-06T08:07:18.569Z,236
2018-02-06T08:07:59.105Z,240
2018-02-06T08:08:39.608Z,248
2018-02-06T08:09:20.075Z,248
2018-02-06T08:10:00.443Z,248
2018-02-06T08:10:40.857Z,248
2018-02-06T08:11:21.260Z,252
2018-02-06T08:12:01.726Z,252
2018-02-06T08:14:35.853Z,260
2018-02-06T08:15:15.718Z,272
2018-02-06T08:15:56.181Z,272
2018-02-06T08:16:36.521Z,280
2018-02-06T08:17:16.902Z,284
2018-02-06T08:17:57.292Z,292
2018-02-06T08:18:37.821Z,296
2018-02-06T08:19:18.248Z,300
2018-02-06T08:19:58.614Z,304
2018-02-06T08:20:39.024Z,312
2018-02-06T08:24:40.222Z,360
2018-02-06T08:25:20.679Z,364
2018-02-06T08:26:01.086Z,372
2018-02-06T08:26:41.447Z,372
2018-02-06T08:27:21.887Z,380
2018-02-06T08:28:02.270Z,384
2018-02-06T08:28:42.882Z,388
2018-02-06T08:29:23.508Z,392
2018-02-06T08:30:04.360Z,392
2018-02-06T08:30:46.073Z,388
2018-02-06T08:31:26.074Z,380
2018-02-06T08:32:06.537Z,376
2018-02-06T08:32:46.958Z,368
2018-02-06T08:33:27.306Z,360
2018-02-06T08:34:07.806Z,360
2018-02-06T08:34:48.179Z,356
2018-02-06T08:35:28.775Z,356
2018-02-06T08:36:09.210Z,360
2018-02-06T08:36:49.705Z,364
2018-02-06T08:37:30.119Z,372
2018-02-06T08:38:10.467Z,384
2018-02-06T08:40:21.590Z,436
2018-02-06T08:41:15.241Z,460
2018-02-06T08:42:11.695Z,492
2018-02-06T08:43:03.794Z,520
2018-02-06T08:45:30.723Z,632
2018-02-06T08:46:24.557Z,680
2018-02-06T08:47:19.456Z,720
2018-02-06T08:48:20.416Z,740
2018-02-06T08:49:13.993Z,728
2018-02-06T08:50:21.304Z,740
2018-02-06T08:56:27.906Z,912
2018-02-06T08:57:08.187Z,916
2018-02-06T08:57:48.558Z,928
2018-02-06T08:58:29.010Z,944
2018-02-06T09:02:10.337Z,1104
2018-02-06T09:02:51.077Z,1128
2018-02-06T09:03:31.618Z,1156
2018-02-06T09:04:12.019Z,1164
2018-02-06T09:04:53.028Z,1124
2018-02-06T09:05:32.913Z,1100
2018-02-06T09:06:13.385Z,1096
2018-02-06T09:06:53.785Z,1100
2018-02-06T09:07:34.337Z,1112
2018-02-06T09:08:14.792Z,1128
2018-02-06T09:08:55.130Z,1156
2018-02-06T09:09:36.116Z,1184
2018-02-06T09:10:16.170Z,1204
2018-02-06T09:10:56.560Z,1228
2018-02-06T09:11:36.975Z,1248
2018-02-06T09:12:17.385Z,1276
2018-02-06T09:12:57.854Z,1284
2018-02-06T09:13:38.329Z,1276
2018-02-06T09:14:18.755Z,1260
2018-02-06T09:14:59.070Z,1244
2018-02-06T09:15:39.585Z,1232
2018-02-06T09:16:20.054Z,1220
2018-02-06T09:17:00.459Z,1200
2018-02-06T09:17:41.573Z,1204
2018-02-06T09:18:21.437Z,1216
2018-02-06T09:19:01.874Z,1248
2018-02-06T09:19:42.306Z,1288
2018-02-06T09:24:20.281Z,1372
2018-02-06T09:25:00.634Z,1388
2018-02-06T09:25:41.021Z,1408
2018-02-06T09:26:21.468Z,1432
2018-02-06T09:27:01.843Z,1468
2018-02-06T09:27:42.236Z,1508
2018-02-06T09:28:22.713Z,1544
2018-02-06T09:29:03.243Z,1568
2018-02-06T09:29:50.452Z,1556
2018-02-06T09:30:30.938Z,1568
2018-02-06T09:31:11.545Z,1560
2018-02-06T09:31:51.888Z,1544
2018-02-06T09:32:32.298Z,1508
2018-02-06T09:33:12.762Z,1464
2018-02-06T09:33:53.191Z,1444
2018-02-06T09:34:33.586Z,1440
2018-02-06T09:35:14.000Z,1428
2018-02-06T09:35:54.434Z,1424
2018-02-06T09:36:34.920Z,1416
2018-02-06T09:37:15.404Z,1412
2018-02-06T09:37:55.890Z,1412
2018-02-06T09:38:36.242Z,1404
2018-02-06T09:40:59.571Z,1348
2018-02-06T09:41:39.810Z,1348
2018-02-06T09:42:20.220Z,1340
2018-02-06T09:43:00.657Z,1332
2018-02-06T09:43:41.089Z,1300
2018-02-06T09:44:21.446Z,1276
2018-02-06T09:45:02.043Z,1264
2018-02-06T09:45:42.476Z,1256
2018-02-06T09:46:22.860Z,1244
2018-02-06T09:47:03.265Z,1240
2018-02-06T09:47:43.665Z,1236
2018-02-06T09:48:24.048Z,1208
2018-02-06T09:49:04.485Z,1168
2018-02-06T09:49:44.908Z,1148
2018-02-06T09:50:25.632Z,1148
2018-02-06T09:51:05.772Z,1140
2018-02-06T09:51:46.216Z,1120
2018-02-06T09:52:27.384Z,1112
2018-02-06T09:53:07.575Z,1108
2018-02-06T09:53:48.113Z,1096
2018-02-06T09:54:28.543Z,1052
2018-02-06T09:55:08.959Z,1008
2018-02-06T09:55:49.486Z,980
2018-02-06T09:56:29.984Z,956
2018-02-06T09:57:10.531Z,944
2018-02-06T09:57:51.028Z,924
2018-02-06T09:58:31.733Z,904
2018-02-06T09:59:12.217Z,896
2018-02-06T09:59:52.719Z,892
2018-02-06T10:00:33.126Z,892
2018-02-06T10:01:13.558Z,888
2018-02-06T10:01:54.106Z,876
2018-02-06T10:02:36.578Z,864
2018-02-06T10:03:17.030Z,864
2018-02-06T10:03:57.496Z,864
2018-02-06T10:04:37.983Z,868
2018-02-06T10:05:20.502Z,868
2018-02-06T10:47:22.439Z,752
2018-02-06T10:49:48.350Z,768
2018-02-06T10:50:26.638Z,772
2018-02-06T10:52:34.590Z,764
2018-02-06T10:53:13.894Z,744
2018-02-06T10:53:54.323Z,716
2018-02-06T10:54:34.764Z,688
2018-02-06T10:55:15.154Z,660
2018-02-06T10:55:55.530Z,636
2018-02-06T10:56:36.006Z,624
2018-02-06T10:57:16.381Z,616
2018-02-06T10:57:56.785Z,612
2018-02-06T10:58:37.189Z,608
2018-02-06T10:59:17.679Z,604
2018-02-06T10:59:58.156Z,604
2018-02-06T11:00:39.499Z,608
2018-02-06T11:01:20.018Z,608
2018-02-06T11:02:00.711Z,620
2018-02-06T11:02:41.577Z,636
2018-02-06T11:03:22.863Z,648
2018-02-06T11:04:03.531Z,648
2018-02-06T11:04:44.136Z,636
2018-02-06T11:05:24.599Z,616
2018-02-06T11:06:05.056Z,596
2018-02-06T11:06:45.504Z,584
2018-02-06T11:07:26.180Z,584
2018-02-06T11:08:06.790Z,580
2018-02-06T11:08:47.564Z,572
2018-02-06T11:09:28.278Z,576
2018-02-06T11:10:08.997Z,580
2018-02-06T11:10:49.117Z,584
2018-02-06T11:11:29.461Z,592
2018-02-06T11:12:09.902Z,592
2018-02-06T11:12:50.645Z,588
2018-02-06T11:13:31.328Z,584
2018-02-06T11:14:12.391Z,584
2018-02-06T11:14:52.996Z,588
2018-02-06T11:15:33.808Z,596
2018-02-06T11:16:14.976Z,604
2018-02-06T11:16:57.061Z,616
2018-02-06T11:17:37.469Z,628
2018-02-06T11:18:18.277Z,632
2018-02-06T11:18:58.922Z,644
2018-02-06T11:19:40.342Z,660
2018-02-06T11:20:20.848Z,672
2018-02-06T11:21:01.396Z,680
2018-02-06T11:21:42.054Z,696
2018-02-06T11:22:22.356Z,704
2018-02-06T11:23:03.001Z,716
2018-02-06T11:23:45.756Z,724
2018-02-06T11:24:24.705Z,744
2018-02-06T11:25:05.264Z,752
2018-02-06T11:25:45.869Z,760
2018-02-06T11:26:26.312Z,756
2018-02-06T11:27:07.695Z,744
2018-02-06T11:27:47.612Z,732
2018-02-06T11:28:29.694Z,728
2018-02-06T11:29:10.544Z,728
2018-02-06T11:29:51.109Z,728
2018-02-06T11:30:31.840Z,716
2018-02-06T11:31:12.284Z,704
2018-02-06T11:31:52.812Z,684
2018-02-06T11:32:33.216Z,660
2018-02-06T11:33:13.665Z,644
2018-02-06T11:33:54.115Z,624
2018-02-06T11:34:34.624Z,620
2018-02-06T11:35:15.154Z,624
2018-02-06T11:35:55.555Z,616
2018-02-06T11:36:35.936Z,608
2018-02-06T11:37:16.391Z,608
2018-02-06T11:37:56.874Z,608
2018-02-06T11:38:37.239Z,600
2018-02-06T11:39:17.656Z,596
2018-02-06T11:39:58.240Z,604
2018-02-06T11:40:38.805Z,612
2018-02-06T11:41:19.411Z,620
2018-02-06T11:41:59.758Z,648
2018-02-06T11:42:40.350Z,672
2018-02-06T11:43:20.839Z,692
2018-02-06T11:44:01.343Z,716
2018-02-06T11:44:42.069Z,744
2018-02-06T11:45:22.725Z,764
2018-02-06T11:46:03.175Z,772
2018-02-06T11:46:43.725Z,772
2018-02-06T11:47:24.290Z,756
2018-02-06T11:48:04.961Z,724
2018-02-06T11:48:46.172Z,696
2018-02-06T11:49:26.260Z,680
2018-02-06T11:50:07.137Z,672
2018-02-06T11:50:47.584Z,672
2018-02-06T11:51:28.217Z,680
2018-02-06T11:52:08.632Z,688
2018-02-06T11:52:49.039Z,692
2018-02-06T11:53:29.745Z,700
2018-02-06T11:54:10.517Z,712
2018-02-06T11:54:51.055Z,716
2018-02-06T11:55:31.509Z,728
2018-02-06T11:56:13.390Z,732
2018-02-06T11:56:53.890Z,736
2018-02-06T11:57:34.357Z,732
2018-02-06T11:58:15.734Z,736
2018-02-06T11:58:55.887Z,736
2018-02-06T11:59:36.527Z,732
2018-02-06T12:00:17.054Z,724
2018-02-06T12:00:58.665Z,720
2018-02-06T12:01:38.798Z,716
2018-02-06T12:02:20.167Z,720
2018-02-06T12:03:00.596Z,728
2018-02-06T12:03:41.521Z,740
2018-02-06T12:04:21.790Z,744
2018-02-06T12:05:03.170Z,744
2018-02-06T12:05:44.243Z,748
2018-02-06T12:06:24.401Z,748
2018-02-06T12:07:05.692Z,720
2018-02-06T12:07:46.021Z,680
2018-02-06T12:08:26.858Z,628
2018-02-06T12:09:07.443Z,592
2018-02-06T12:09:47.868Z,564
2018-02-06T12:10:29.292Z,548
2018-02-06T12:11:09.448Z,528
2018-02-06T12:11:49.741Z,508
2018-02-06T12:12:30.361Z,492
2018-02-06T12:13:10.835Z,480
2018-02-06T12:13:51.624Z,480
2018-02-06T12:14:33.316Z,480
2018-02-06T12:15:13.927Z,476
2018-02-06T12:15:54.321Z,468
2018-02-06T12:16:35.717Z,464
2018-02-06T12:17:16.064Z,464
2018-02-06T12:17:56.644Z,468
2018-02-06T12:18:37.315Z,468
2018-02-06T12:19:17.729Z,468
2018-02-06T12:19:58.157Z,468
2018-02-06T12:20:38.569Z,468
2018-02-06T12:21:19.023Z,464
2018-02-06T12:21:59.482Z,456
2018-02-06T12:22:39.933Z,448
2018-02-06T12:23:20.458Z,436
2018-02-06T12:24:01.256Z,452
2018-02-06T12:24:41.679Z,464
2018-02-06T12:25:22.240Z,472
2018-02-06T12:26:02.789Z,472
2018-02-06T12:26:43.134Z,472
2018-02-06T12:27:23.567Z,476
2018-02-06T12:28:04.086Z,484
2018-02-06T12:28:45.684Z,496
2018-02-06T12:29:26.707Z,524
2018-02-06T12:30:06.455Z,544
2018-02-06T12:32:35.171Z,564
2018-02-06T12:33:15.841Z,572
2018-02-06T12:33:56.364Z,572
2018-02-06T12:34:36.919Z,568
2018-02-06T12:35:17.225Z,568
2018-02-06T12:35:57.810Z,560
2018-02-06T12:36:38.202Z,556
2018-02-06T12:37:18.729Z,552
2018-02-06T12:37:59.495Z,544
2018-02-06T12:38:40.020Z,540
2018-02-06T12:39:20.723Z,532
2018-02-06T12:40:01.125Z,528
2018-02-06T12:40:41.548Z,516
2018-02-06T12:41:22.733Z,512
2018-02-06T12:43:55.950Z,508
2018-02-06T12:44:36.240Z,508
2018-02-06T12:45:16.680Z,500
2018-02-06T12:45:57.088Z,488
2018-02-06T12:46:37.512Z,472
2018-02-06T12:47:17.916Z,452
2018-02-06T12:47:58.323Z,440
2018-02-06T12:48:38.749Z,440
2018-02-06T12:49:19.133Z,448
2018-02-06T12:49:59.633Z,464
2018-02-06T12:52:31.267Z,480
2018-02-06T12:54:17.108Z,476
2018-02-06T12:54:57.525Z,476
2018-02-06T12:55:38.053Z,472
2018-02-06T12:56:18.360Z,476
2018-02-06T12:56:58.965Z,472
2018-02-06T12:57:39.356Z,464
2018-02-06T12:58:19.745Z,460
2018-02-06T12:59:00.148Z,472
2018-02-06T12:59:40.570Z,476
2018-02-06T13:00:21.002Z,472
2018-02-06T13:01:01.475Z,472
2018-02-06T13:01:41.879Z,464
2018-02-06T13:02:22.317Z,460
2018-02-06T13:03:02.738Z,456
2018-02-06T13:03:43.087Z,460
2018-02-06T13:04:23.491Z,464
2018-02-06T13:05:03.916Z,464
2018-02-06T13:05:44.292Z,468
2018-02-06T13:06:24.659Z,472
2018-02-06T13:07:05.094Z,480
2018-02-06T13:07:45.517Z,484
2018-02-06T13:08:25.881Z,484
2018-02-06T13:09:06.257Z,492
2018-02-06T13:11:39.508Z,520
2018-02-06T13:12:21.235Z,528
2018-02-06T13:13:01.676Z,540
2018-02-06T13:13:42.188Z,552
2018-02-06T13:14:22.572Z,552
2018-02-06T13:16:57.015Z,520
2018-02-06T13:17:37.313Z,512
2018-02-06T13:18:17.682Z,508
2018-02-06T13:18:58.099Z,504
2018-02-06T13:19:38.538Z,500
2018-02-06T13:20:18.955Z,504
2018-02-06T13:20:59.451Z,512
2018-02-06T13:21:39.858Z,520
2018-02-06T13:22:20.259Z,524
2018-02-06T13:23:00.796Z,520
2018-02-06T13:23:41.505Z,512
2018-02-06T13:24:22.114Z,504
2018-02-06T13:25:02.499Z,500
2018-02-06T13:25:43.049Z,508
2018-02-06T13:26:23.439Z,520
2018-02-06T13:28:33.558Z,544
2018-02-06T13:29:25.998Z,548
2018-02-06T13:30:21.486Z,544
2018-02-06T13:31:15.623Z,540
2018-02-06T13:32:08.478Z,544
2018-02-06T13:33:03.253Z,532
2018-02-06T13:33:56.876Z,520
2018-02-06T13:34:50.493Z,508
2018-02-06T13:35:43.359Z,484
2018-02-06T13:36:37.382Z,480
2018-02-06T13:37:32.371Z,464
2018-02-06T13:38:25.943Z,448
2018-02-06T13:39:19.710Z,432
2018-02-06T13:40:03.373Z,424
2018-02-06T13:40:43.713Z,420
2018-02-06T13:41:24.841Z,408
2018-02-06T13:42:05.158Z,404
2018-02-06T13:42:45.687Z,400
2018-02-06T13:43:26.163Z,392
2018-02-06T13:44:06.434Z,388
2018-02-06T13:44:46.920Z,384
2018-02-06T13:45:27.215Z,380
2018-02-06T13:46:07.660Z,376
2018-02-06T13:46:49.131Z,376
2018-02-06T13:47:29.817Z,380
2018-02-06T13:48:10.277Z,376
2018-02-06T13:48:50.657Z,372
2018-02-06T13:49:31.074Z,364
2018-02-06T13:50:11.470Z,356
2018-02-06T13:50:51.901Z,348
2018-02-06T13:51:32.333Z,336
2018-02-06T13:52:12.696Z,328
2018-02-06T13:52:53.188Z,328
2018-02-06T13:53:33.603Z,324
2018-02-06T13:54:14.235Z,324
2018-02-06T13:54:55.004Z,328
2018-02-06T13:55:35.864Z,332
2018-02-06T13:56:16.555Z,340
2018-02-06T13:56:56.890Z,348
2018-02-06T13:57:37.298Z,352
2018-02-06T13:58:17.855Z,356
2018-02-06T13:58:58.245Z,360
2018-02-06T13:59:38.624Z,364
2018-02-06T14:00:19.010Z,368
2018-02-06T14:00:59.753Z,372
2018-02-06T14:01:40.447Z,372
2018-02-06T14:02:20.588Z,372